createdAt,value
2019-05-25T00:00:55.904Z,3.80
2019-05-25T00:02:01.196Z,3.80
2019-05-25T00:03:07.038Z,3.33
2019-05-25T00:04:12.229Z,3.50
2019-05-25T00:05:19.016Z,3.47
2019-05-25T00:06:24.170Z,3.63
2019-05-25T00:07:29.830Z,3.90
2019-05-25T00:08:34.993Z,3.67
2019-05-25T00:09:40.771Z,3.60
2019-05-25T00:10:45.876Z,3.30
2019-05-25T00:11:51.612Z,3.57
2019-05-25T00:12:56.726Z,3.80
2019-05-25T00:14:02.382Z,4.10
2019-05-25T00:15:08.940Z,3.43
2019-05-25T00:16:14.856Z,3.60
2019-05-25T00:17:20.099Z,3.53
2019-05-25T00:18:25.910Z,3.53
2019-05-25T00:19:31.072Z,3.47
2019-05-25T00:20:36.775Z,3.40
2019-05-25T00:21:41.867Z,3.10
2019-05-25T00:22:47.608Z,3.47
2019-05-25T00:23:52.881Z,3.93
2019-05-25T00:24:59.818Z,3.37
2019-05-25T00:26:04.904Z,3.83
2019-05-25T00:27:10.619Z,3.60
2019-05-25T00:28:15.698Z,4.00
2019-05-25T00:29:21.433Z,3.67
2019-05-25T00:30:26.732Z,3.97
2019-05-25T00:31:32.442Z,4.37
2019-05-25T00:32:37.810Z,3.97
2019-05-25T00:33:43.661Z,4.27
2019-05-25T00:34:48.845Z,3.47
2019-05-25T00:35:54.700Z,4.00
2019-05-25T00:37:00.051Z,3.40
2019-05-25T00:38:05.973Z,4.03
2019-05-25T00:39:11.198Z,4.60
2019-05-25T00:40:17.102Z,3.83
2019-05-25T00:41:22.287Z,4.17
2019-05-25T00:42:28.147Z,4.40
2019-05-25T00:43:33.223Z,4.10
2019-05-25T00:44:38.921Z,3.93
2019-05-25T00:45:44.081Z,3.93
2019-05-25T00:46:49.852Z,4.10
2019-05-25T00:47:54.937Z,3.87
2019-05-25T00:49:00.854Z,4.40
2019-05-25T00:50:06.588Z,4.30
2019-05-25T00:51:12.270Z,4.43
2019-05-25T00:52:17.438Z,3.63
2019-05-25T00:53:23.075Z,4.40
2019-05-25T00:54:29.152Z,4.30
2019-05-25T00:55:34.840Z,4.27
2019-05-25T00:56:40.072Z,4.33
2019-05-25T00:57:45.770Z,4.30
2019-05-25T00:58:50.792Z,4.17
2019-05-25T00:59:56.417Z,4.10
2019-05-25T01:01:01.585Z,4.00
2019-05-25T01:02:07.509Z,4.33
2019-05-25T01:03:12.684Z,3.87
2019-05-25T01:04:18.334Z,3.97
2019-05-25T01:05:23.718Z,4.23
2019-05-25T01:06:29.523Z,4.00
2019-05-25T01:07:34.724Z,4.40
2019-05-25T01:08:40.552Z,4.03
2019-05-25T01:09:45.755Z,4.60
2019-05-25T01:10:51.482Z,4.70
2019-05-25T01:11:56.540Z,4.53
2019-05-25T01:13:02.302Z,4.37
2019-05-25T01:14:07.513Z,3.80
2019-05-25T01:15:14.474Z,4.80
2019-05-25T01:16:19.713Z,4.43
2019-05-25T01:17:25.481Z,4.90
2019-05-25T01:18:30.768Z,4.63
2019-05-25T01:19:36.499Z,4.40
2019-05-25T01:20:41.542Z,4.20
2019-05-25T01:21:47.265Z,4.70
2019-05-25T01:22:52.345Z,4.80
2019-05-25T01:23:58.285Z,4.30
2019-05-25T01:25:03.589Z,4.47
2019-05-25T01:26:09.275Z,4.63
2019-05-25T01:27:14.297Z,4.50
2019-05-25T01:28:20.025Z,4.90
2019-05-25T01:29:25.218Z,4.60
2019-05-25T01:30:31.115Z,4.80
2019-05-25T01:31:36.265Z,4.60
2019-05-25T01:32:41.963Z,5.10
2019-05-25T01:33:47.148Z,4.83
2019-05-25T01:34:52.796Z,4.70
2019-05-25T01:35:57.902Z,4.70
2019-05-25T01:37:03.514Z,4.23
2019-05-25T01:38:08.708Z,4.10
2019-05-25T01:39:14.507Z,4.73
2019-05-25T01:40:20.172Z,4.50
2019-05-25T01:41:25.807Z,4.80
2019-05-25T01:42:30.980Z,4.73
2019-05-25T01:43:36.700Z,5.40
2019-05-25T01:44:41.903Z,4.40
2019-05-25T01:45:47.660Z,5.00
2019-05-25T01:46:52.934Z,4.60
2019-05-25T01:47:58.658Z,4.40
2019-05-25T01:49:03.781Z,5.20
2019-05-25T01:50:09.731Z,5.20
2019-05-25T01:51:14.877Z,5.97
2019-05-25T01:52:23.717Z,4.80
2019-05-25T01:53:28.799Z,4.57
2019-05-25T01:54:34.541Z,4.60
2019-05-25T01:55:39.730Z,5.10
2019-05-25T01:56:45.427Z,5.23
2019-05-25T01:57:50.491Z,5.57
2019-05-25T01:58:56.202Z,5.17
2019-05-25T02:00:01.934Z,5.27
2019-05-25T02:01:07.827Z,5.40
2019-05-25T02:02:12.905Z,5.17
2019-05-25T02:03:18.936Z,5.13
2019-05-25T02:04:24.050Z,5.83
2019-05-25T02:05:29.820Z,5.20
2019-05-25T02:06:34.877Z,5.30
2019-05-25T02:07:40.627Z,5.57
2019-05-25T02:08:45.699Z,5.33
2019-05-25T02:09:51.399Z,5.47
2019-05-25T02:10:56.613Z,6.20
2019-05-25T02:12:03.929Z,5.37
2019-05-25T02:13:09.095Z,5.60
2019-05-25T02:14:14.802Z,6.40
2019-05-25T02:15:20.107Z,5.87
2019-05-25T02:16:25.928Z,6.03
2019-05-25T02:17:31.063Z,5.87
2019-05-25T02:18:36.771Z,6.80
2019-05-25T02:19:41.902Z,5.30
2019-05-25T02:20:47.670Z,6.13
2019-05-25T02:21:52.786Z,5.33
2019-05-25T02:22:58.648Z,5.67
2019-05-25T02:24:03.782Z,5.43
2019-05-25T02:25:17.469Z,6.17
2019-05-25T02:26:17.205Z,5.87
2019-05-25T02:27:23.031Z,5.47
2019-05-25T02:28:28.169Z,6.07
2019-05-25T02:29:33.916Z,5.77
2019-05-25T02:30:39.078Z,5.30
2019-05-25T02:31:44.743Z,5.83
2019-05-25T02:32:49.811Z,5.87
2019-05-25T02:33:55.459Z,5.47
2019-05-25T02:35:00.578Z,5.60
2019-05-25T02:36:07.373Z,5.80
2019-05-25T02:37:12.562Z,5.70
2019-05-25T02:38:18.173Z,5.40
2019-05-25T02:39:23.349Z,6.13
2019-05-25T02:40:29.186Z,4.90
2019-05-25T02:41:34.305Z,6.63
2019-05-25T02:42:40.025Z,5.93
2019-05-25T02:43:45.276Z,5.73
2019-05-25T02:44:51.065Z,6.03
2019-05-25T02:45:56.146Z,6.20
2019-05-25T02:47:01.846Z,5.20
2019-05-25T02:48:06.915Z,6.03
2019-05-25T02:49:12.649Z,5.50
2019-05-25T02:50:17.867Z,6.07
2019-05-25T02:51:23.597Z,5.53
2019-05-25T02:52:28.710Z,5.60
2019-05-25T02:53:34.545Z,5.60
2019-05-25T02:54:39.680Z,5.67
2019-05-25T02:55:45.494Z,5.43
2019-05-25T02:56:50.636Z,5.37
2019-05-25T02:57:56.334Z,5.77
2019-05-25T02:59:01.535Z,5.70
2019-05-25T03:00:08.041Z,5.70
2019-05-25T03:01:13.192Z,5.53
2019-05-25T03:02:18.925Z,5.97
2019-05-25T03:03:25.047Z,5.70
2019-05-25T03:04:30.905Z,5.70
2019-05-25T03:05:36.059Z,5.07
2019-05-25T03:06:42.517Z,5.90
2019-05-25T03:07:47.991Z,6.23
2019-05-25T03:08:56.124Z,5.83
2019-05-25T03:10:02.304Z,5.30
2019-05-25T03:11:08.100Z,5.90
2019-05-25T03:12:13.315Z,5.87
2019-05-25T03:13:19.811Z,6.20
2019-05-25T03:14:25.873Z,5.80
2019-05-25T03:15:31.659Z,5.53
2019-05-25T03:16:36.934Z,5.90
2019-05-25T03:17:42.768Z,5.97
2019-05-25T03:18:47.949Z,6.13
2019-05-25T03:19:53.642Z,6.27
2019-05-25T03:20:58.784Z,6.63
2019-05-25T03:22:04.436Z,6.17
2019-05-25T03:23:09.587Z,6.57
2019-05-25T03:24:15.290Z,6.23
2019-05-25T03:25:20.468Z,5.90
2019-05-25T03:26:26.173Z,5.63
2019-05-25T03:27:31.225Z,6.10
2019-05-25T03:28:36.925Z,5.67
2019-05-25T03:29:41.993Z,5.67
2019-05-25T03:30:47.633Z,6.10
2019-05-25T03:31:52.885Z,5.87
2019-05-25T03:32:58.688Z,6.80
2019-05-25T03:34:03.840Z,6.03
2019-05-25T03:35:10.057Z,5.93
2019-05-25T03:36:15.325Z,5.90
2019-05-25T03:37:21.045Z,5.80
2019-05-25T03:38:26.202Z,6.23
2019-05-25T03:39:31.938Z,6.07
2019-05-25T03:40:36.990Z,6.10
2019-05-25T03:41:42.735Z,6.30
2019-05-25T03:42:47.874Z,6.23
2019-05-25T03:43:53.648Z,6.17
2019-05-25T03:44:58.708Z,5.83
2019-05-25T03:46:04.491Z,6.50
2019-05-25T03:47:09.569Z,6.87
2019-05-25T03:48:15.410Z,5.70
2019-05-25T03:49:20.644Z,5.73
2019-05-25T03:50:26.412Z,5.70
2019-05-25T03:51:31.591Z,6.10
2019-05-25T03:52:37.299Z,6.00
2019-05-25T03:53:42.410Z,6.37
2019-05-25T03:54:48.080Z,6.90
2019-05-25T03:56:05.281Z,6.97
2019-05-25T03:57:04.221Z,5.97
2019-05-25T03:58:09.406Z,6.37
2019-05-25T03:59:15.181Z,6.83
2019-05-25T04:00:31.715Z,6.67
2019-05-25T04:01:37.590Z,6.50
2019-05-25T04:02:42.681Z,6.57
2019-05-25T04:03:48.464Z,6.77
2019-05-25T04:04:53.668Z,6.60
2019-05-25T04:05:59.458Z,6.93
2019-05-25T04:07:04.724Z,6.33
2019-05-25T04:08:10.466Z,6.27
2019-05-25T04:09:15.629Z,5.77
2019-05-25T04:10:21.315Z,6.47
2019-05-25T04:11:26.378Z,5.93
2019-05-25T04:12:32.127Z,6.70
2019-05-25T04:13:37.248Z,5.70
2019-05-25T04:14:42.993Z,6.17
2019-05-25T04:15:48.226Z,6.10
2019-05-25T04:16:53.903Z,5.47
2019-05-25T04:17:59.131Z,6.20
2019-05-25T04:19:04.863Z,5.10
2019-05-25T04:20:11.111Z,5.17
2019-05-25T04:21:16.965Z,5.10
2019-05-25T04:22:22.087Z,5.20
2019-05-25T04:23:27.912Z,5.30
2019-05-25T04:24:33.317Z,5.33
2019-05-25T04:25:39.096Z,5.17
2019-05-25T04:26:44.550Z,5.43
2019-05-25T04:27:50.406Z,4.97
2019-05-25T04:28:55.600Z,5.00
2019-05-25T04:30:01.308Z,4.73
2019-05-25T04:31:06.547Z,5.03
2019-05-25T04:32:12.280Z,5.17
2019-05-25T04:33:17.521Z,4.77
2019-05-25T04:34:23.494Z,4.30
2019-05-25T04:35:28.625Z,4.43
2019-05-25T04:36:34.620Z,4.40
2019-05-25T04:37:39.745Z,4.60
2019-05-25T04:38:45.478Z,4.87
2019-05-25T04:39:50.603Z,4.40
2019-05-25T04:40:56.320Z,4.47
2019-05-25T04:42:01.726Z,5.00
2019-05-25T04:43:07.462Z,4.90
2019-05-25T04:44:12.621Z,4.80
2019-05-25T04:45:18.516Z,4.17
2019-05-25T04:46:23.793Z,4.70
2019-05-25T04:47:29.452Z,4.23
2019-05-25T04:48:34.585Z,4.77
2019-05-25T04:49:40.320Z,4.27
2019-05-25T04:50:45.462Z,4.27
2019-05-25T04:51:51.168Z,4.00
2019-05-25T04:52:56.355Z,4.40
2019-05-25T04:54:01.984Z,3.70
2019-05-25T04:55:07.683Z,3.63
2019-05-25T04:56:13.464Z,3.80
2019-05-25T04:57:18.563Z,4.10
2019-05-25T04:58:24.243Z,3.43
2019-05-25T04:59:30.843Z,3.87
2019-05-25T05:00:36.667Z,3.63
2019-05-25T05:01:41.790Z,4.03
2019-05-25T05:02:47.604Z,3.70
2019-05-25T05:03:52.682Z,3.47
2019-05-25T05:04:58.414Z,4.07
2019-05-25T05:06:03.631Z,3.90
2019-05-25T05:07:09.353Z,3.43
2019-05-25T05:08:14.535Z,4.07
2019-05-25T05:09:20.191Z,3.50
2019-05-25T05:10:25.362Z,3.57
2019-05-25T05:11:31.052Z,3.47
2019-05-25T05:12:38.462Z,4.13
2019-05-25T05:13:44.152Z,3.23
2019-05-25T05:14:49.269Z,3.60
2019-05-25T05:15:55.041Z,3.50
2019-05-25T05:17:00.370Z,3.83
2019-05-25T05:18:06.109Z,3.83
2019-05-25T05:19:11.210Z,3.57
2019-05-25T05:20:18.354Z,3.60
2019-05-25T05:21:23.581Z,3.23
2019-05-25T05:22:29.360Z,3.70
2019-05-25T05:23:34.494Z,3.80
2019-05-25T05:24:40.147Z,3.70
2019-05-25T05:25:45.182Z,4.40
2019-05-25T05:26:55.912Z,4.00
2019-05-25T05:27:57.770Z,4.10
2019-05-25T05:29:03.507Z,4.00
2019-05-25T05:30:09.032Z,3.30
2019-05-25T05:31:23.160Z,4.07
2019-05-25T05:32:27.670Z,4.03
2019-05-25T05:33:29.974Z,3.77
2019-05-25T05:34:35.175Z,3.70
2019-05-25T05:35:41.136Z,3.80
2019-05-25T05:36:47.144Z,3.90
2019-05-25T05:37:52.879Z,3.33
2019-05-25T05:38:59.171Z,4.20
2019-05-25T05:40:05.611Z,4.20
2019-05-25T05:41:11.062Z,4.40
2019-05-25T05:42:19.817Z,3.70
2019-05-25T05:43:28.084Z,4.30
2019-05-25T05:44:34.626Z,3.90
2019-05-25T05:45:41.885Z,4.57
2019-05-25T05:46:50.300Z,4.53
2019-05-25T05:47:58.087Z,4.00
2019-05-25T05:49:04.080Z,4.50
2019-05-25T05:50:09.795Z,4.20
2019-05-25T05:51:18.458Z,4.00
2019-05-25T05:52:25.592Z,4.20
2019-05-25T05:53:32.744Z,3.93
2019-05-25T05:54:39.968Z,4.00
2019-05-25T05:55:45.674Z,3.77
2019-05-25T05:56:50.884Z,4.30
2019-05-25T05:57:56.716Z,4.10
2019-05-25T05:59:03.022Z,4.17
2019-05-25T06:00:09.901Z,4.07
2019-05-25T06:01:14.973Z,4.23
2019-05-25T06:02:20.723Z,4.23
2019-05-25T06:03:25.907Z,5.13
2019-05-25T06:04:31.649Z,3.97
2019-05-25T06:05:42.349Z,4.53
2019-05-25T06:06:48.267Z,4.00
2019-05-25T06:07:53.592Z,4.00
2019-05-25T06:08:59.475Z,4.47
2019-05-25T06:10:05.839Z,3.90
2019-05-25T06:11:11.562Z,3.93
2019-05-25T06:12:16.701Z,3.97
2019-05-25T06:13:22.485Z,3.43
2019-05-25T06:14:27.649Z,4.37
2019-05-25T06:15:33.444Z,3.77
2019-05-25T06:16:38.553Z,3.53
2019-05-25T06:17:44.298Z,3.90
2019-05-25T06:18:49.469Z,3.43
2019-05-25T06:19:55.155Z,3.23
2019-05-25T06:21:00.243Z,3.30
2019-05-25T06:22:05.896Z,3.37
2019-05-25T06:23:12.594Z,3.07
2019-05-25T06:24:18.634Z,3.43
2019-05-25T06:25:23.842Z,3.03
2019-05-25T06:26:31.936Z,3.20
2019-05-25T06:27:37.424Z,3.10
2019-05-25T06:28:46.040Z,3.00
2019-05-25T06:29:51.236Z,3.63
2019-05-25T06:30:56.829Z,2.73
2019-05-25T06:32:01.965Z,3.37
2019-05-25T06:33:07.731Z,3.60
2019-05-25T06:34:12.831Z,3.00
2019-05-25T06:35:18.599Z,3.20
2019-05-25T06:36:23.725Z,2.93
2019-05-25T06:37:29.380Z,3.40
2019-05-25T06:38:34.491Z,3.20
2019-05-25T06:39:40.198Z,3.23
2019-05-25T06:40:45.548Z,3.27
2019-05-25T06:41:51.282Z,3.37
2019-05-25T06:42:56.307Z,3.70
2019-05-25T06:44:02.055Z,2.90
2019-05-25T06:45:08.988Z,3.30
2019-05-25T06:46:14.720Z,3.57
2019-05-25T06:47:19.758Z,2.57
2019-05-25T06:48:25.571Z,2.80
2019-05-25T06:49:30.736Z,2.40
2019-05-25T06:50:36.548Z,2.90
2019-05-25T06:51:41.696Z,2.37
2019-05-25T06:52:51.509Z,3.10
2019-05-25T06:53:56.658Z,2.80
2019-05-25T06:55:02.440Z,1.90
2019-05-25T06:56:07.724Z,1.97
2019-05-25T06:57:13.431Z,2.53
2019-05-25T06:58:18.509Z,2.37
2019-05-25T06:59:24.418Z,2.50
2019-05-25T07:00:29.856Z,2.07
2019-05-25T07:01:35.580Z,2.20
2019-05-25T07:02:40.621Z,2.53
2019-05-25T07:03:46.267Z,2.40
2019-05-25T07:04:51.626Z,2.90
2019-05-25T07:05:57.596Z,3.03
2019-05-25T07:07:02.921Z,2.50
2019-05-25T07:08:08.987Z,2.40
2019-05-25T07:09:14.325Z,2.20
2019-05-25T07:10:20.296Z,2.70
2019-05-25T07:11:25.480Z,2.50
2019-05-25T07:12:31.408Z,2.37
2019-05-25T07:13:37.209Z,2.40
2019-05-25T07:14:43.278Z,2.23
2019-05-25T07:15:48.632Z,2.57
2019-05-25T07:16:54.590Z,2.73
2019-05-25T07:17:59.961Z,3.07
2019-05-25T07:19:06.152Z,2.70
2019-05-25T07:20:11.934Z,2.90
2019-05-25T07:21:17.863Z,2.53
2019-05-25T07:22:23.139Z,2.40
2019-05-25T07:23:28.970Z,2.10
2019-05-25T07:24:34.271Z,1.80
2019-05-25T07:25:40.015Z,2.10
2019-05-25T07:26:45.330Z,2.43
2019-05-25T07:27:59.561Z,2.23
2019-05-25T07:29:00.154Z,2.23
2019-05-25T07:30:06.263Z,2.30
2019-05-25T07:31:12.753Z,2.10
2019-05-25T07:32:18.802Z,2.20
2019-05-25T07:33:24.270Z,2.23
2019-05-25T07:34:30.146Z,2.60
2019-05-25T07:35:35.549Z,2.17
2019-05-25T07:36:41.619Z,2.57
2019-05-25T07:37:47.034Z,2.47
2019-05-25T07:38:52.913Z,2.37
2019-05-25T07:39:58.206Z,2.77
2019-05-25T07:41:04.167Z,2.17
2019-05-25T07:42:10.562Z,2.70
2019-05-25T07:43:16.449Z,2.60
2019-05-25T07:44:21.790Z,2.23
2019-05-25T07:45:27.752Z,2.73
2019-05-25T07:46:33.008Z,2.67
2019-05-25T07:47:39.123Z,3.00
2019-05-25T07:48:44.377Z,2.50
2019-05-25T07:49:50.056Z,2.80
2019-05-25T07:50:55.197Z,2.17
2019-05-25T07:52:02.885Z,2.73
2019-05-25T07:53:07.769Z,2.80
2019-05-25T07:54:13.446Z,2.47
2019-05-25T07:55:18.470Z,2.70
2019-05-25T07:56:24.135Z,2.50
2019-05-25T07:57:29.208Z,2.60
2019-05-25T07:58:34.887Z,2.83
2019-05-25T07:59:39.933Z,2.07
2019-05-25T08:00:45.646Z,2.37
2019-05-25T08:01:51.879Z,3.50
2019-05-25T08:02:57.622Z,3.23
2019-05-25T08:04:02.901Z,3.10
2019-05-25T08:05:09.417Z,2.87
2019-05-25T08:06:14.516Z,2.47
2019-05-25T08:07:20.173Z,2.33
2019-05-25T08:08:25.324Z,2.27
2019-05-25T08:09:31.149Z,2.80
2019-05-25T08:10:36.436Z,2.80
2019-05-25T08:11:42.290Z,2.37
2019-05-25T08:12:47.528Z,2.97
2019-05-25T08:13:53.470Z,2.90
2019-05-25T08:14:58.610Z,2.47
2019-05-25T08:16:05.313Z,2.63
2019-05-25T08:17:10.363Z,2.80
2019-05-25T08:18:17.150Z,2.60
2019-05-25T08:19:22.335Z,2.37
2019-05-25T08:20:28.009Z,3.00
2019-05-25T08:21:33.091Z,2.60
2019-05-25T08:22:38.846Z,2.90
2019-05-25T08:23:43.979Z,2.70
2019-05-25T08:24:49.840Z,3.00
2019-05-25T08:25:55.256Z,2.73
2019-05-25T08:27:01.007Z,2.83
2019-05-25T08:28:06.201Z,2.90
2019-05-25T08:29:12.091Z,2.80
2019-05-25T08:30:17.440Z,2.67
2019-05-25T08:31:23.151Z,2.97
2019-05-25T08:32:28.280Z,2.53
2019-05-25T08:33:33.942Z,2.80
2019-05-25T08:34:40.212Z,2.57
2019-05-25T08:35:46.489Z,2.53
2019-05-25T08:36:51.810Z,2.53
2019-05-25T08:37:57.632Z,2.63
2019-05-25T08:39:02.890Z,2.03
2019-05-25T08:40:09.514Z,2.23
2019-05-25T08:41:14.783Z,2.50
2019-05-25T08:42:20.569Z,2.50
2019-05-25T08:43:36.288Z,6.67
2019-05-25T08:44:37.356Z,2.67
2019-05-25T08:45:42.503Z,2.53
2019-05-25T08:46:48.282Z,2.37
2019-05-25T08:47:56.752Z,3.00
2019-05-25T08:49:00.855Z,2.20
2019-05-25T08:50:06.732Z,2.50
2019-05-25T08:51:12.544Z,2.53
2019-05-25T08:52:17.745Z,2.30
2019-05-25T08:53:39.995Z,2.50
2019-05-25T08:54:30.347Z,2.60
2019-05-25T08:55:36.360Z,2.67
2019-05-25T08:56:41.462Z,2.30
2019-05-25T08:57:47.342Z,2.70
2019-05-25T08:58:55.470Z,2.50
2019-05-25T08:59:59.870Z,2.90
2019-05-25T09:01:05.138Z,2.50
2019-05-25T09:02:10.911Z,2.90
2019-05-25T09:03:16.279Z,2.40
2019-05-25T09:04:25.117Z,2.67
2019-05-25T09:05:28.811Z,2.70
2019-05-25T09:06:34.569Z,2.67
2019-05-25T09:07:39.797Z,2.90
2019-05-25T09:08:45.588Z,2.60
2019-05-25T09:09:50.615Z,2.87
2019-05-25T09:10:56.431Z,2.83
2019-05-25T09:12:02.418Z,2.40
2019-05-25T09:13:09.495Z,2.70
2019-05-25T09:14:14.669Z,2.70
2019-05-25T09:15:20.536Z,3.10
2019-05-25T09:16:25.592Z,2.97
2019-05-25T09:17:31.385Z,2.90
2019-05-25T09:18:36.430Z,2.70
2019-05-25T09:19:42.138Z,2.57
2019-05-25T09:20:47.405Z,2.93
2019-05-25T09:22:01.957Z,3.17
2019-05-25T09:22:59.981Z,2.93
2019-05-25T09:24:05.663Z,3.33
2019-05-25T09:25:11.222Z,3.17
2019-05-25T09:26:16.950Z,3.07
2019-05-25T09:27:22.087Z,3.40
2019-05-25T09:28:27.808Z,3.10
2019-05-25T09:29:34.068Z,3.00
2019-05-25T09:30:39.843Z,3.50
2019-05-25T09:31:44.953Z,3.13
2019-05-25T09:32:51.129Z,3.43
2019-05-25T09:33:56.284Z,3.37
2019-05-25T09:35:02.013Z,3.03
2019-05-25T09:36:07.231Z,3.80
2019-05-25T09:37:12.934Z,3.40
2019-05-25T09:38:18.048Z,2.93
2019-05-25T09:39:23.916Z,3.10
2019-05-25T09:40:29.015Z,3.50
2019-05-25T09:41:34.774Z,3.20
2019-05-25T09:42:40.307Z,3.50
2019-05-25T09:43:46.235Z,3.37
2019-05-25T09:44:51.369Z,3.10
2019-05-25T09:45:57.169Z,3.60
2019-05-25T09:47:02.322Z,3.80
2019-05-25T09:48:08.143Z,3.50
2019-05-25T09:49:13.214Z,3.20
2019-05-25T09:50:18.948Z,3.47
2019-05-25T09:51:24.095Z,3.27
2019-05-25T09:52:29.805Z,3.10
2019-05-25T09:53:34.842Z,2.83
2019-05-25T09:54:40.641Z,2.87
2019-05-25T09:55:45.759Z,2.87
2019-05-25T09:56:51.635Z,3.30
2019-05-25T09:57:57.717Z,3.10
2019-05-25T09:59:19.012Z,2.70
2019-05-25T10:00:11.320Z,2.83
2019-05-25T10:01:16.960Z,2.87
2019-05-25T10:02:22.197Z,3.20
2019-05-25T10:03:27.978Z,2.67
2019-05-25T10:04:33.310Z,2.77
2019-05-25T10:05:39.054Z,2.83
2019-05-25T10:06:44.260Z,3.07
2019-05-25T10:07:49.982Z,3.20
2019-05-25T10:08:55.091Z,3.47
2019-05-25T10:10:00.816Z,3.43
2019-05-25T10:11:08.993Z,2.70
2019-05-25T10:12:16.301Z,3.37
2019-05-25T10:13:21.781Z,3.37
2019-05-25T10:14:27.534Z,2.73
2019-05-25T10:15:32.659Z,3.07
2019-05-25T10:16:38.312Z,2.50
2019-05-25T10:17:43.394Z,3.17
2019-05-25T10:18:49.058Z,3.00
2019-05-25T10:19:54.158Z,2.83
2019-05-25T10:20:59.803Z,2.83
2019-05-25T10:22:05.339Z,3.23
2019-05-25T10:23:11.035Z,2.97
2019-05-25T10:24:16.142Z,3.23
2019-05-25T10:25:21.832Z,3.37
2019-05-25T10:26:28.674Z,3.33
2019-05-25T10:27:34.486Z,3.27
2019-05-25T10:28:39.590Z,3.33
2019-05-25T10:29:45.375Z,3.43
2019-05-25T10:30:50.588Z,3.40
2019-05-25T10:31:56.309Z,3.63
2019-05-25T10:33:02.711Z,3.60
2019-05-25T10:34:08.756Z,3.77
2019-05-25T10:35:16.009Z,3.43
2019-05-25T10:36:22.057Z,3.57
2019-05-25T10:37:29.790Z,3.87
2019-05-25T10:38:35.957Z,3.40
2019-05-25T10:39:41.254Z,3.77
2019-05-25T10:40:47.434Z,3.70
2019-05-25T10:41:52.796Z,3.47
2019-05-25T10:42:58.558Z,3.57
2019-05-25T10:44:03.737Z,3.77
2019-05-25T10:45:10.231Z,3.50
2019-05-25T10:46:15.390Z,3.90
2019-05-25T10:47:21.276Z,4.13
2019-05-25T10:48:27.690Z,4.00
2019-05-25T10:49:33.488Z,4.47
2019-05-25T10:50:38.717Z,4.33
2019-05-25T10:51:44.529Z,4.60
2019-05-25T10:52:49.720Z,4.60
2019-05-25T10:53:55.411Z,4.57
2019-05-25T10:55:00.511Z,4.43
2019-05-25T10:56:06.404Z,4.03
2019-05-25T10:57:13.383Z,4.53
2019-05-25T10:58:19.345Z,4.20
2019-05-25T10:59:24.445Z,4.10
2019-05-25T11:00:30.295Z,4.17
2019-05-25T11:01:35.438Z,3.70
2019-05-25T11:02:41.185Z,4.07
2019-05-25T11:03:46.308Z,3.93
2019-05-25T11:04:52.152Z,3.60
2019-05-25T11:05:57.279Z,4.03
2019-05-25T11:07:03.024Z,4.20
2019-05-25T11:08:08.075Z,4.43
2019-05-25T11:09:13.843Z,3.90
2019-05-25T11:10:19.195Z,4.30
2019-05-25T11:11:25.969Z,4.30
2019-05-25T11:12:31.105Z,4.83
2019-05-25T11:13:36.752Z,4.70
2019-05-25T11:14:41.899Z,4.30
2019-05-25T11:15:47.626Z,4.13
2019-05-25T11:16:52.851Z,4.57
2019-05-25T11:17:58.531Z,4.20
2019-05-25T11:19:03.738Z,4.87
2019-05-25T11:20:10.792Z,4.67
2019-05-25T11:21:16.045Z,4.60
2019-05-25T11:22:21.776Z,4.77
2019-05-25T11:23:27.020Z,4.17
2019-05-25T11:24:32.814Z,4.50
2019-05-25T11:25:37.931Z,4.67
2019-05-25T11:26:43.727Z,4.13
2019-05-25T11:27:49.920Z,3.53
2019-05-25T11:28:55.675Z,4.40
2019-05-25T11:30:09.205Z,4.20
2019-05-25T11:31:11.035Z,5.03
2019-05-25T11:32:16.134Z,4.50
2019-05-25T11:33:21.968Z,4.13
2019-05-25T11:34:27.093Z,3.27
2019-05-25T11:35:32.943Z,4.20
2019-05-25T11:36:38.208Z,3.83
2019-05-25T11:37:43.915Z,3.57
2019-05-25T11:38:49.057Z,4.33
2019-05-25T11:39:55.114Z,3.30
2019-05-25T11:41:00.350Z,3.40
2019-05-25T11:42:06.254Z,3.73
2019-05-25T11:43:11.463Z,3.30
2019-05-25T11:44:17.320Z,3.63
2019-05-25T11:45:22.542Z,4.00
2019-05-25T11:46:28.723Z,3.23
2019-05-25T11:47:35.076Z,3.13
2019-05-25T11:48:40.874Z,3.20
2019-05-25T11:49:46.140Z,3.60
2019-05-25T11:50:52.091Z,3.37
2019-05-25T11:51:57.180Z,3.83
2019-05-25T11:53:05.640Z,3.93
2019-05-25T11:54:09.929Z,4.37
2019-05-25T11:55:15.911Z,4.10
2019-05-25T11:56:21.177Z,4.10
2019-05-25T11:57:26.978Z,4.53
2019-05-25T11:58:46.663Z,4.33
2019-05-25T11:59:41.727Z,4.70
2019-05-25T12:00:46.696Z,4.70
2019-05-25T12:01:52.427Z,4.20
2019-05-25T12:02:57.539Z,4.03
2019-05-25T12:04:03.365Z,3.77
2019-05-25T12:05:08.729Z,3.80
2019-05-25T12:06:15.288Z,4.00
2019-05-25T12:07:20.340Z,3.70
2019-05-25T12:08:26.042Z,3.33
2019-05-25T12:09:31.378Z,3.83
2019-05-25T12:10:37.109Z,3.80
2019-05-25T12:11:42.587Z,3.47
2019-05-25T12:12:48.307Z,3.30
2019-05-25T12:13:53.516Z,3.63
2019-05-25T12:14:59.293Z,3.30
2019-05-25T12:16:04.463Z,3.80
2019-05-25T12:17:10.240Z,3.63
2019-05-25T12:18:15.552Z,3.90
2019-05-25T12:19:21.308Z,4.00
2019-05-25T12:20:27.660Z,3.60
2019-05-25T12:21:33.534Z,3.70
2019-05-25T12:22:38.750Z,3.30
2019-05-25T12:23:44.556Z,4.23
2019-05-25T12:24:50.652Z,3.63
2019-05-25T12:25:56.407Z,3.97
2019-05-25T12:27:01.740Z,3.90
2019-05-25T12:28:07.831Z,4.37
2019-05-25T12:29:13.070Z,4.10
2019-05-25T12:30:20.128Z,6.27
2019-05-25T12:31:25.195Z,3.87
2019-05-25T12:32:30.964Z,4.10
2019-05-25T12:33:36.004Z,3.87
2019-05-25T12:34:41.990Z,4.17
2019-05-25T12:35:50.171Z,4.20
2019-05-25T12:36:55.946Z,3.53
2019-05-25T12:38:01.090Z,3.23
2019-05-25T12:39:07.824Z,3.63
2019-05-25T12:40:13.106Z,3.60
2019-05-25T12:41:18.802Z,3.97
2019-05-25T12:42:23.902Z,3.60
2019-05-25T12:43:29.733Z,3.77
2019-05-25T12:44:34.920Z,3.80
2019-05-25T12:45:42.245Z,3.70
2019-05-25T12:46:48.606Z,4.10
2019-05-25T12:47:58.763Z,4.30
2019-05-25T12:49:10.957Z,4.13
2019-05-25T12:50:17.024Z,4.43
2019-05-25T12:51:22.348Z,4.20
2019-05-25T12:52:28.095Z,4.07
2019-05-25T12:53:33.321Z,3.97
2019-05-25T12:54:39.013Z,3.50
2019-05-25T12:55:44.593Z,3.97
2019-05-25T12:56:50.438Z,4.07
2019-05-25T12:57:55.573Z,4.17
2019-05-25T12:59:01.172Z,3.93
2019-05-25T13:00:15.402Z,4.20
2019-05-25T13:01:13.951Z,4.00
2019-05-25T13:02:19.204Z,4.03
2019-05-25T13:03:28.219Z,4.30
2019-05-25T13:04:31.752Z,4.67
2019-05-25T13:05:37.472Z,5.20
2019-05-25T13:06:42.537Z,4.97
2019-05-25T13:07:48.248Z,4.53
2019-05-25T13:08:53.490Z,4.27
2019-05-25T13:09:59.182Z,4.80
2019-05-25T13:11:04.345Z,4.07
2019-05-25T13:12:10.109Z,4.57
2019-05-25T13:13:15.346Z,4.80
2019-05-25T13:14:21.188Z,4.70
2019-05-25T13:15:26.347Z,4.17
2019-05-25T13:16:32.119Z,4.43
2019-05-25T13:17:39.162Z,4.67
2019-05-25T13:18:44.940Z,5.33
2019-05-25T13:19:50.257Z,5.50
2019-05-25T13:20:56.183Z,4.33
2019-05-25T13:22:02.247Z,4.13
2019-05-25T13:23:08.006Z,4.00
2019-05-25T13:24:13.207Z,3.67
2019-05-25T13:25:19.081Z,4.23
2019-05-25T13:26:25.268Z,4.23
2019-05-25T13:27:31.095Z,4.60
2019-05-25T13:28:36.452Z,3.97
2019-05-25T13:29:42.396Z,4.67
2019-05-25T13:30:47.488Z,4.70
2019-05-25T13:31:53.140Z,4.13
2019-05-25T13:32:59.234Z,4.63
2019-05-25T13:34:05.168Z,5.93
2019-05-25T13:35:10.450Z,4.53
2019-05-25T13:36:16.270Z,4.30
2019-05-25T13:37:21.525Z,6.00
2019-05-25T13:38:27.246Z,5.97
2019-05-25T13:39:33.496Z,4.80
2019-05-25T13:40:39.222Z,5.63
2019-05-25T13:41:44.489Z,5.07
2019-05-25T13:42:50.291Z,4.97
2019-05-25T13:43:55.680Z,4.47
2019-05-25T13:45:01.532Z,5.17
2019-05-25T13:46:06.799Z,5.23
2019-05-25T13:47:12.583Z,4.57
2019-05-25T13:48:18.486Z,4.60
2019-05-25T13:49:24.255Z,4.70
2019-05-25T13:50:29.470Z,4.40
2019-05-25T13:51:35.187Z,5.20
2019-05-25T13:52:40.298Z,5.00
2019-05-25T13:53:46.044Z,4.33
2019-05-25T13:54:51.252Z,4.50
2019-05-25T13:55:57.015Z,4.30
2019-05-25T13:57:02.168Z,4.47
2019-05-25T13:58:07.944Z,4.90
2019-05-25T13:59:13.210Z,4.47
2019-05-25T14:00:19.084Z,4.70
2019-05-25T14:01:28.352Z,5.30
2019-05-25T14:02:31.839Z,4.73
2019-05-25T14:03:36.965Z,4.37
2019-05-25T14:04:42.897Z,4.50
2019-05-25T14:05:48.030Z,4.10
2019-05-25T14:06:53.871Z,4.47
2019-05-25T14:07:59.120Z,4.57
2019-05-25T14:09:05.712Z,4.20
2019-05-25T14:10:10.960Z,4.73
2019-05-25T14:11:16.842Z,4.60
2019-05-25T14:12:22.026Z,5.73
2019-05-25T14:13:27.939Z,4.20
2019-05-25T14:14:33.474Z,4.17
2019-05-25T14:15:39.338Z,3.87
2019-05-25T14:16:44.443Z,4.43
2019-05-25T14:17:50.295Z,4.40
2019-05-25T14:18:55.854Z,6.07
2019-05-25T14:20:01.701Z,7.33
2019-05-25T14:21:07.026Z,4.37
2019-05-25T14:22:12.799Z,4.80
2019-05-25T14:23:18.108Z,5.13
2019-05-25T14:24:23.836Z,4.00
2019-05-25T14:25:29.097Z,4.17
2019-05-25T14:26:34.922Z,4.73
2019-05-25T14:27:40.143Z,4.03
2019-05-25T14:28:46.162Z,3.90
2019-05-25T14:29:51.456Z,4.07
2019-05-25T14:30:57.317Z,4.43
2019-05-25T14:32:02.558Z,4.70
2019-05-25T14:33:08.310Z,4.63
2019-05-25T14:34:13.580Z,4.10
2019-05-25T14:35:19.347Z,4.43